Time,TemperatureF,DewpointF,PressureIn,WindDirection,WindDirectionDegrees,WindSpeedMPH,WindSpeedGustMPH,Humidity,HourlyPrecipIn,Conditions,Clouds,dailyrainin,SolarRadiationWatts/m^2,SoftwareType,DateUTC
2013-05-10 00:01:00,69.0,24.0,29.99,WNW,291,8.0,11.0,18,-99.99,,,-99.99,0.000000,,2013-05-10 06:01:00,
2013-05-10 00:12:00,69.0,25.0,29.99,WNW,293,7.0,11.0,19,-99.99,,,-99.99,0.000000,,2013-05-10 06:12:00,
2013-05-10 00:21:00,69.0,25.0,29.99,WNW,293,7.0,11.0,19,-99.99,,,-99.99,0.000000,,2013-05-10 06:21:00,
2013-05-10 00:32:00,69.0,26.0,29.99,NW,325,8.0,12.0,20,-99.99,,,-99.99,0.000000,,2013-05-10 06:32:00,
2013-05-10 00:42:00,68.0,26.0,29.99,North,351,12.0,16.0,20,-99.99,,,-99.99,0.000000,,2013-05-10 06:42:00,
2013-05-10 00:52:00,68.0,26.0,29.99,North,351,12.0,16.0,20,-99.99,,,-99.99,0.000000,,2013-05-10 06:52:00,
2013-05-10 01:02:00,68.0,26.0,29.99,North,351,12.0,16.0,20,-99.99,,,-99.99,0.000000,,2013-05-10 07:02:00,
2013-05-10 01:12:00,67.0,26.0,30.00,NNE,23,9.0,13.0,20,-99.99,,,-99.99,0.000000,,2013-05-10 07:12:00,
2013-05-10 01:22:00,67.0,26.0,30.00,NNE,23,9.0,13.0,20,-99.99,,,-99.99,0.000000,,2013-05-10 07:22:00,
2013-05-10 01:31:00,65.0,25.0,30.00,NE,38,6.0,8.0,21,-99.99,,,-99.99,0.000000,,2013-05-10 07:31:00,
2013-05-10 01:42:00,64.0,24.0,30.00,NE,52,5.0,7.0,22,-99.99,,,-99.99,0.000000,,2013-05-10 07:42:00,
2013-05-10 01:52:00,64.0,24.0,30.00,NE,52,5.0,7.0,22,-99.99,,,-99.99,0.000000,,2013-05-10 07:52:00,
2013-05-10 02:02:00,63.0,25.0,30.00,ENE,74,7.0,11.0,23,-99.99,,,-99.99,0.000000,,2013-05-10 08:02:00,
2013-05-10 02:12:00,63.0,25.0,30.00,NNW,348,5.0,9.0,23,-99.99,,,-99.99,0.000000,,2013-05-10 08:12:00,
2013-05-10 02:22:00,63.0,25.0,30.00,NNW,348,5.0,9.0,23,-99.99,,,-99.99,0.000000,,2013-05-10 08:22:00,
2013-05-10 02:32:00,61.0,25.0,30.00,WNW,284,2.0,9.0,24,-99.99,,,-99.99,0.000000,,2013-05-10 08:32:00,
2013-05-10 02:42:00,62.0,26.0,30.00,WSW,243,4.0,8.0,25,-99.99,,,-99.99,0.000000,,2013-05-10 08:42:00,
2013-05-10 02:52:00,62.0,26.0,30.00,WSW,243,4.0,8.0,25,-99.99,,,-99.99,0.000000,,2013-05-10 08:52:00,
2013-05-10 03:01:00,63.0,27.0,29.99,NNW,345,3.0,7.0,24,-99.99,,,-99.99,0.000000,,2013-05-10 09:01:00,
2013-05-10 03:11:00,67.0,28.0,29.99,ESE,114,2.0,9.0,23,-99.99,,,-99.99,0.000000,,2013-05-10 09:11:00,
2013-05-10 03:21:00,67.0,28.0,29.99,ESE,114,2.0,9.0,23,-99.99,,,-99.99,0.000000,,2013-05-10 09:21:00,
2013-05-10 03:32:00,68.0,27.0,29.99,West,265,3.0,7.0,21,-99.99,,,-99.99,0.000000,,2013-05-10 09:32:00,
2013-05-10 03:42:00,66.0,27.0,29.99,WSW,244,3.0,9.0,23,-99.99,,,-99.99,0.000000,,2013-05-10 09:42:00,
2013-05-10 03:52:00,66.0,27.0,29.99,WSW,244,3.0,9.0,23,-99.99,,,-99.99,0.000000,,2013-05-10 09:52:00,
2013-05-10 04:03:00,67.0,28.0,30.00,NNE,30,11.0,22.0,23,-99.99,,,-99.99,0.000000,,2013-05-10 10:03:00,
2013-05-10 04:12:00,67.0,29.0,30.00,ENE,62,15.0,21.0,24,-99.99,,,-99.99,0.000000,,2013-05-10 10:12:00,
2013-05-10 04:23:00,67.0,29.0,30.00,ENE,62,15.0,21.0,24,-99.99,,,-99.99,0.000000,,2013-05-10 10:23:00,
2013-05-10 04:32:00,66.0,31.0,30.01,NE,51,13.0,22.0,27,-99.99,,,-99.99,0.000000,,2013-05-10 10:32:00,
2013-05-10 04:42:00,65.0,34.0,30.02,North,10,16.0,23.0,30,-99.99,,,-99.99,0.000000,,2013-05-10 10:42:00,
2013-05-10 04:53:00,65.0,34.0,30.02,North,10,16.0,23.0,30,-99.99,,,-99.99,0.000000,,2013-05-10 10:53:00,
2013-05-10 05:02:00,65.0,34.0,30.02,North,11,18.0,25.0,31,-99.99,,,-99.99,0.000000,,2013-05-10 11:02:00,
2013-05-10 05:12:00,64.0,34.0,30.02,NNE,16,16.0,25.0,32,-99.99,,,-99.99,0.000000,,2013-05-10 11:12:00,
2013-05-10 05:22:00,64.0,34.0,30.02,NNE,16,16.0,25.0,32,-99.99,,,-99.99,0.000000,,2013-05-10 11:22:00,
2013-05-10 05:32:00,64.0,35.0,30.02,NNE,20,14.0,20.0,33,-99.99,,,-99.99,0.000000,,2013-05-10 11:32:00,
2013-05-10 05:42:00,63.0,36.0,30.02,NNE,17,15.0,25.0,36,-99.99,,,-99.99,0.000000,,2013-05-10 11:42:00,
2013-05-10 05:52:00,63.0,36.0,30.02,NNE,17,15.0,25.0,36,-99.99,,,-99.99,0.000000,,2013-05-10 11:52:00,
2013-05-10 06:01:00,62.0,36.0,30.02,NNE,21,10.0,17.0,37,-99.99,,,-99.99,0.000000,,2013-05-10 12:01:00,
2013-05-10 06:12:00,62.0,36.0,30.03,NNE,25,9.0,16.0,38,-99.99,,,-99.99,0.000000,,2013-05-10 12:12:00,
2013-05-10 06:21:00,62.0,36.0,30.03,NNE,25,9.0,16.0,38,-99.99,,,-99.99,0.000000,,2013-05-10 12:21:00,
2013-05-10 06:32:00,61.0,36.0,30.04,NNE,25,6.0,10.0,39,-99.99,,,-99.99,0.000000,,2013-05-10 12:32:00,
2013-05-10 06:42:00,61.0,36.0,30.05,ENE,62,2.0,5.0,40,-99.99,,,-99.99,0.700000,,2013-05-10 12:42:00,
2013-05-10 06:52:00,61.0,36.0,30.05,ENE,62,2.0,5.0,40,-99.99,,,-99.99,0.700000,,2013-05-10 12:52:00,
2013-05-10 07:01:00,61.0,36.0,30.05,ENE,62,2.0,5.0,40,-99.99,,,-99.99,0.700000,,2013-05-10 13:01:00,
2013-05-10 07:11:00,61.0,37.0,30.06,SE,146,12.0,19.0,41,-99.99,,,-99.99,15.340000,,2013-05-10 13:11:00,
2013-05-10 07:21:00,61.0,37.0,30.06,SE,146,12.0,19.0,41,-99.99,,,-99.99,15.340000,,2013-05-10 13:21:00,
2013-05-10 07:32:00,61.0,37.0,30.06,SE,146,12.0,19.0,41,-99.99,,,-99.99,15.340000,,2013-05-10 13:32:00,
2013-05-10 07:41:00,62.0,37.0,30.07,ESE,103,10.0,17.0,40,-99.99,,,-99.99,55.790001,,2013-05-10 13:41:00,
2013-05-10 07:52:00,62.0,37.0,30.07,ESE,103,10.0,17.0,40,-99.99,,,-99.99,55.790001,,2013-05-10 13:52:00,
2013-05-10 08:02:00,62.0,37.0,30.07,ESE,103,10.0,17.0,40,-99.99,,,-99.99,55.790001,,2013-05-10 14:02:00,
2013-05-10 08:11:00,62.0,38.0,30.09,ESE,109,10.0,14.0,40,-99.99,,,-99.99,117.150002,,2013-05-10 14:11:00,
2013-05-10 08:21:00,62.0,38.0,30.09,ESE,109,10.0,14.0,40,-99.99,,,-99.99,117.150002,,2013-05-10 14:21:00,
2013-05-10 08:32:00,62.0,38.0,30.09,ESE,109,9.0,14.0,40,-99.99,,,-99.99,131.100006,,2013-05-10 14:32:00,
2013-05-10 08:42:00,62.0,37.0,30.09,ENE,73,8.0,13.0,40,-99.99,,,-99.99,94.839996,,2013-05-10 14:42:00,
2013-05-10 08:52:00,62.0,37.0,30.09,ENE,73,8.0,13.0,40,-99.99,,,-99.99,94.839996,,2013-05-10 14:52:00,
2013-05-10 09:02:00,62.0,37.0,30.09,ENE,73,8.0,13.0,40,-99.99,,,-99.99,94.839996,,2013-05-10 15:02:00,
2013-05-10 09:20:00,-999.0,-99.9,30.10,East,101,5.0,9.0,39,-99.99,,,-99.99,88.559998,,2013-05-10 15:20:00,
2013-05-10 09:32:00,62.0,37.0,30.10,East,101,5.0,9.0,39,-99.99,,,-99.99,88.559998,,2013-05-10 15:32:00,
2013-05-10 09:42:00,63.0,37.0,30.10,SSE,150,4.0,6.0,38,-99.99,,,-99.99,140.160004,,2013-05-10 15:42:00,
2013-05-10 09:53:00,63.0,37.0,30.10,SSE,150,4.0,6.0,38,-99.99,,,-99.99,140.160004,,2013-05-10 15:53:00,
2013-05-10 10:02:00,63.0,37.0,30.10,SSE,168,4.0,6.0,38,-99.99,,,-99.99,191.070007,,2013-05-10 16:02:00,
2013-05-10 10:12:00,63.0,37.0,30.10,SE,126,4.0,7.0,37,-99.99,,,-99.99,184.789993,,2013-05-10 16:12:00,
2013-05-10 10:23:00,63.0,37.0,30.10,SE,126,4.0,7.0,37,-99.99,,,-99.99,184.789993,,2013-05-10 16:23:00,
2013-05-10 10:32:00,64.0,37.0,30.10,SE,130,4.0,7.0,36,-99.99,,,-99.99,214.779999,,2013-05-10 16:32:00,
2013-05-10 10:42:00,64.0,36.0,30.10,ESE,114,4.0,7.0,35,-99.99,,,-99.99,222.449997,,2013-05-10 16:42:00,
2013-05-10 10:53:00,64.0,36.0,30.10,ESE,114,4.0,7.0,35,-99.99,,,-99.99,222.449997,,2013-05-10 16:53:00,
2013-05-10 11:02:00,64.0,36.0,30.10,ESE,114,4.0,7.0,35,-99.99,,,-99.99,222.449997,,2013-05-10 17:02:00,
2013-05-10 11:12:00,64.0,36.0,30.10,ESE,114,4.0,7.0,35,-99.99,,,-99.99,222.449997,,2013-05-10 17:12:00,
2013-05-10 16:32:00,73.0,34.0,30.05,NNW,332,2.0,10.0,24,-99.99,,,-99.99,200.130005,,2013-05-10 22:32:00,
2013-05-10 16:42:00,73.0,34.0,30.06,North,7,7.0,13.0,24,-99.99,,,-99.99,94.839996,,2013-05-10 22:42:00,
2013-05-10 16:52:00,73.0,34.0,30.06,North,7,7.0,13.0,24,-99.99,,,-99.99,94.839996,,2013-05-10 22:52:00,
2013-05-10 17:02:00,70.0,37.0,30.08,North,7,16.0,28.0,29,-99.99,,,-99.99,34.169998,,2013-05-10 23:02:00,
2013-05-10 17:12:00,67.0,39.0,30.11,North,359,13.0,29.0,35,-99.99,,,-99.99,17.430000,,2013-05-10 23:12:00,
2013-05-10 17:22:00,67.0,39.0,30.11,North,359,13.0,29.0,35,-99.99,,,-99.99,17.430000,,2013-05-10 23:22:00,
2013-05-10 17:32:00,63.0,44.0,30.12,NNW,340,19.0,32.0,50,-99.99,,,-99.99,27.200001,,2013-05-10 23:32:00,
2013-05-10 17:42:00,60.0,46.0,30.12,North,0,14.0,22.0,60,-99.99,,,-99.99,64.849998,,2013-05-10 23:42:00,
2013-05-10 17:52:00,60.0,46.0,30.12,North,0,14.0,22.0,60,-99.99,,,-99.99,64.849998,,2013-05-10 23:52:00,
2013-05-10 18:02:00,60.0,46.0,30.12,North,0,14.0,22.0,60,-99.99,,,-99.99,64.849998,,2013-05-11 00:02:00,
2013-05-10 18:11:00,61.0,46.0,30.12,NNE,22,14.0,20.0,57,-99.99,,,-99.99,128.309998,,2013-05-11 00:11:00,
2013-05-10 18:21:00,61.0,46.0,30.12,NNE,22,14.0,20.0,57,-99.99,,,-99.99,128.309998,,2013-05-11 00:21:00,
2013-05-10 18:32:00,62.0,44.0,30.11,NNE,12,15.0,25.0,50,-99.99,,,-99.99,130.399994,,2013-05-11 00:32:00,
2013-05-10 18:42:00,63.0,43.0,30.12,NNE,22,11.0,22.0,48,-99.99,,,-99.99,108.779999,,2013-05-11 00:42:00,
2013-05-10 18:52:00,63.0,43.0,30.12,NNE,22,11.0,22.0,48,-99.99,,,-99.99,108.779999,,2013-05-11 00:52:00,
2013-05-10 19:01:00,63.0,45.0,30.12,NE,44,7.0,14.0,52,-99.99,,,-99.99,87.169998,,2013-05-11 01:01:00,
2013-05-10 19:11:00,63.0,45.0,30.13,ENE,58,2.0,6.0,51,-99.99,,,-99.99,85.769997,,2013-05-11 01:11:00,
2013-05-10 19:21:00,63.0,45.0,30.13,ENE,58,2.0,6.0,51,-99.99,,,-99.99,85.769997,,2013-05-11 01:21:00,
2013-05-10 19:32:00,63.0,45.0,30.14,East,85,3.0,6.0,51,-99.99,,,-99.99,69.730003,,2013-05-11 01:32:00,
2013-05-10 19:42:00,63.0,48.0,30.14,ENE,77,5.0,8.0,58,-99.99,,,-99.99,45.330002,,2013-05-11 01:42:00,
2013-05-10 19:52:00,63.0,48.0,30.14,ENE,77,5.0,8.0,58,-99.99,,,-99.99,45.330002,,2013-05-11 01:52:00,
2013-05-10 20:02:00,62.0,49.0,30.14,ENE,77,6.0,8.0,62,-99.99,,,-99.99,41.840000,,2013-05-11 02:02:00,
2013-05-10 20:11:00,62.0,49.0,30.15,ENE,68,5.0,7.0,63,-99.99,,,-99.99,18.830000,,2013-05-11 02:11:00,
2013-05-10 20:22:00,62.0,49.0,30.15,ENE,68,5.0,7.0,63,-99.99,,,-99.99,18.830000,,2013-05-11 02:22:00,
2013-05-10 20:32:00,61.0,50.0,30.17,SSE,151,9.0,21.0,65,-99.99,,,-99.99,2.790000,,2013-05-11 02:32:00,
2013-05-10 20:42:00,59.0,49.0,30.18,SSE,159,13.0,22.0,68,-99.99,,,-99.99,0.000000,,2013-05-11 02:42:00,
2013-05-10 20:52:00,59.0,49.0,30.18,SSE,159,13.0,22.0,68,-99.99,,,-99.99,0.000000,,2013-05-11 02:52:00,
2013-05-10 21:01:00,59.0,49.0,30.18,SSE,159,13.0,22.0,68,-99.99,,,-99.99,0.000000,,2013-05-11 03:01:00,
2013-05-10 21:11:00,57.0,48.0,30.19,South,184,6.0,10.0,71,-99.99,,,-99.99,0.000000,,2013-05-11 03:11:00,
2013-05-10 21:21:00,57.0,48.0,30.19,South,184,6.0,10.0,71,-99.99,,,-99.99,0.000000,,2013-05-11 03:21:00,
2013-05-10 21:33:00,57.0,48.0,30.19,SW,223,6.0,7.0,73,-99.99,,,-99.99,0.000000,,2013-05-11 03:33:00,
2013-05-10 21:42:00,57.0,48.0,30.19,SW,234,4.0,8.0,72,-99.99,,,-99.99,0.000000,,2013-05-11 03:42:00,
2013-05-10 21:53:00,57.0,48.0,30.19,SW,234,4.0,8.0,72,-99.99,,,-99.99,0.000000,,2013-05-11 03:53:00,
2013-05-10 22:02:00,57.0,48.0,30.19,SW,234,4.0,8.0,72,-99.99,,,-99.99,0.000000,,2013-05-11 04:02:00,
2013-05-10 22:12:00,55.0,48.0,30.20,North,9,5.0,7.0,77,-99.99,,,-99.99,0.000000,,2013-05-11 04:12:00,
2013-05-10 22:23:00,55.0,48.0,30.20,North,9,5.0,7.0,77,-99.99,,,-99.99,0.000000,,2013-05-11 04:23:00,
2013-05-10 22:33:00,55.0,49.0,30.20,NE,35,5.0,6.0,79,-99.99,,,-99.99,0.000000,,2013-05-11 04:33:00,
2013-05-10 22:43:00,54.0,49.0,30.21,NNE,13,4.0,5.0,81,-99.99,,,-99.99,0.000000,,2013-05-11 04:43:00,
2013-05-10 22:52:00,54.0,49.0,30.21,NNE,13,4.0,5.0,81,-99.99,,,-99.99,0.000000,,2013-05-11 04:52:00,
2013-05-10 23:02:00,53.0,48.0,30.21,NNW,338,4.0,6.0,81,-99.99,,,-99.99,0.000000,,2013-05-11 05:02:00,
2013-05-10 23:12:00,53.0,47.0,30.21,NW,310,5.0,6.0,78,-99.99,,,-99.99,0.000000,,2013-05-11 05:12:00,
2013-05-10 23:21:00,53.0,47.0,30.21,NW,310,5.0,6.0,78,-99.99,,,-99.99,0.000000,,2013-05-11 05:21:00,
2013-05-10 23:32:00,53.0,46.0,30.21,NW,316,6.0,7.0,76,-99.99,,,-99.99,0.000000,,2013-05-11 05:32:00,
2013-05-10 23:42:00,53.0,45.0,30.21,NW,321,7.0,9.0,75,-99.99,,,-99.99,0.000000,,2013-05-11 05:42:00,
2013-05-10 23:52:00,53.0,45.0,30.21,NW,321,7.0,9.0,75,-99.99,,,-99.99,0.000000,,2013-05-11 05:52:00,